sensor_id;sensor_type;location;lat;lon;timestamp;pressure;altitude;pressure_sealevel;temperature;humidity
57885;BME280;43703;51.060;-0.086;2023-01-16T00:01:16;97440.71;;;1.52;80.31
57885;BME280;43703;51.060;-0.086;2023-01-16T00:03:41;97433.90;;;1.62;81.80
57885;BME280;43703;51.060;-0.086;2023-01-16T00:06:06;97426.52;;;2.36;77.75
57885;BME280;43703;51.060;-0.086;2023-01-16T00:08:31;97415.74;;;2.62;78.15
57885;BME280;43703;51.060;-0.086;2023-01-16T00:10:57;97407.98;;;2.84;77.34
57885;BME280;43703;51.060;-0.086;2023-01-16T00:13:21;97397.43;;;1.97;78.68
57885;BME280;43703;51.060;-0.086;2023-01-16T00:15:49;97389.86;;;2.20;78.63
57885;BME280;43703;51.060;-0.086;2023-01-16T00:18:12;97379.40;;;3.09;76.62
57885;BME280;43703;51.060;-0.086;2023-01-16T00:20:36;97368.19;;;2.99;77.29
57885;BME280;43703;51.060;-0.086;2023-01-16T00:23:02;97355.03;;;3.91;74.65
57885;BME280;43703;51.060;-0.086;2023-01-16T00:25:27;97339.99;;;3.38;76.06
57885;BME280;43703;51.060;-0.086;2023-01-16T00:27:52;97329.09;;;2.88;76.58
57885;BME280;43703;51.060;-0.086;2023-01-16T00:30:17;97316.32;;;2.77;76.94
57885;BME280;43703;51.060;-0.086;2023-01-16T00:32:42;97307.27;;;4.09;74.25
57885;BME280;43703;51.060;-0.086;2023-01-16T00:35:08;97296.51;;;3.90;74.42
57885;BME280;43703;51.060;-0.086;2023-01-16T00:37:33;97286.87;;;3.83;75.64
57885;BME280;43703;51.060;-0.086;2023-01-16T00:39:58;97284.01;;;3.67;75.83
57885;BME280;43703;51.060;-0.086;2023-01-16T00:42:24;97272.14;;;3.14;76.31
57885;BME280;43703;51.060;-0.086;2023-01-16T00:44:49;97261.36;;;2.96;79.35
57885;BME280;43703;51.060;-0.086;2023-01-16T00:47:14;97267.35;;;3.25;78.23
57885;BME280;43703;51.060;-0.086;2023-01-16T00:49:39;97259.66;;;3.03;79.77
57885;BME280;43703;51.060;-0.086;2023-01-16T00:52:05;97257.10;;;3.35;79.14
57885;BME280;43703;51.060;-0.086;2023-01-16T00:54:30;97242.85;;;2.51;81.42
57885;BME280;43703;51.060;-0.086;2023-01-16T00:56:55;97235.45;;;2.76;82.65
57885;BME280;43703;51.060;-0.086;2023-01-16T00:59:20;97215.40;;;3.17;80.76
57885;BME280;43703;51.060;-0.086;2023-01-16T01:01:45;97209.76;;;2.83;80.11
57885;BME280;43703;51.060;-0.086;2023-01-16T01:04:11;97195.76;;;2.83;82.92
57885;BME280;43703;51.060;-0.086;2023-01-16T01:06:36;97190.99;;;2.45;83.50
57885;BME280;43703;51.060;-0.086;2023-01-16T01:09:01;97173.23;;;2.58;82.72
57885;BME280;43703;51.060;-0.086;2023-01-16T01:11:26;97163.85;;;3.06;80.78
57885;BME280;43703;51.060;-0.086;2023-01-16T01:13:51;97153.65;;;2.85;80.02
57885;BME280;43703;51.060;-0.086;2023-01-16T01:16:16;97137.15;;;2.68;80.86
57885;BME280;43703;51.060;-0.086;2023-01-16T01:18:41;97132.90;;;3.01;79.79
57885;BME280;43703;51.060;-0.086;2023-01-16T01:21:07;97112.84;;;2.26;84.18
57885;BME280;43703;51.060;-0.086;2023-01-16T01:23:32;97109.37;;;0.66;88.01
57885;BME280;43703;51.060;-0.086;2023-01-16T01:25:57;97105.87;;;0.77;87.72
57885;BME280;43703;51.060;-0.086;2023-01-16T01:28:22;97102.19;;;1.48;86.53
57885;BME280;43703;51.060;-0.086;2023-01-16T01:30:47;97093.05;;;1.71;85.73
57885;BME280;43703;51.060;-0.086;2023-01-16T01:33:12;97087.60;;;2.26;82.45
57885;BME280;43703;51.060;-0.086;2023-01-16T01:35:37;97075.17;;;0.77;86.53
57885;BME280;43703;51.060;-0.086;2023-01-16T01:38:02;97070.86;;;2.32;80.77
57885;BME280;43703;51.060;-0.086;2023-01-16T01:40:27;97068.56;;;0.07;86.18
57885;BME280;43703;51.060;-0.086;2023-01-16T01:42:52;97064.70;;;1.31;81.96
57885;BME280;43703;51.060;-0.086;2023-01-16T01:45:21;97058.09;;;1.16;82.31
57885;BME280;43703;51.060;-0.086;2023-01-16T01:47:46;97054.63;;;1.04;81.19
57885;BME280;43703;51.060;-0.086;2023-01-16T01:50:15;97044.89;;;0.35;81.31
57885;BME280;43703;51.060;-0.086;2023-01-16T01:52:39;97026.53;;;-0.10;82.00
57885;BME280;43703;51.060;-0.086;2023-01-16T01:55:01;97013.30;;;0.19;84.10
57885;BME280;43703;51.060;-0.086;2023-01-16T01:57:26;97009.70;;;-0.21;82.02
57885;BME280;43703;51.060;-0.086;2023-01-16T01:59:53;96990.30;;;1.01;80.85
57885;BME280;43703;51.060;-0.086;2023-01-16T02:02:16;96981.81;;;0.62;81.39
57885;BME280;43703;51.060;-0.086;2023-01-16T02:04:42;96969.70;;;1.05;81.89
57885;BME280;43703;51.060;-0.086;2023-01-16T02:07:05;96960.27;;;0.22;84.33
57885;BME280;43703;51.060;-0.086;2023-01-16T02:09:28;96949.07;;;-0.04;84.66
57885;BME280;43703;51.060;-0.086;2023-01-16T02:11:55;96933.84;;;0.49;81.53
57885;BME280;43703;51.060;-0.086;2023-01-16T02:14:18;96917.01;;;1.27;80.75
57885;BME280;43703;51.060;-0.086;2023-01-16T02:16:44;96909.31;;;0.88;81.13
57885;BME280;43703;51.060;-0.086;2023-01-16T02:19:16;96900.53;;;-0.20;84.59
57885;BME280;43703;51.060;-0.086;2023-01-16T02:21:47;96887.77;;;0.96;80.98
57885;BME280;43703;51.060;-0.086;2023-01-16T02:31:22;96847.55;;;1.18;79.84
57885;BME280;43703;51.060;-0.086;2023-01-16T02:33:50;96843.86;;;0.53;82.91
57885;BME280;43703;51.060;-0.086;2023-01-16T02:36:11;96830.94;;;1.03;80.45
57885;BME280;43703;51.060;-0.086;2023-01-16T02:38:37;96821.73;;;0.77;82.99
57885;BME280;43703;51.060;-0.086;2023-01-16T02:41:01;96813.73;;;0.97;81.97
57885;BME280;43703;51.060;-0.086;2023-01-16T02:43:32;96797.62;;;1.41;80.69
57885;BME280;43703;51.060;-0.086;2023-01-16T02:45:50;96793.96;;;-0.19;85.32
57885;BME280;43703;51.060;-0.086;2023-01-16T02:48:14;96787.65;;;-0.19;84.27
57885;BME280;43703;51.060;-0.086;2023-01-16T02:50:46;96781.70;;;-0.74;86.82
57885;BME280;43703;51.060;-0.086;2023-01-16T02:53:05;96766.56;;;0.32;84.94
57885;BME280;43703;51.060;-0.086;2023-01-16T02:55:28;96757.50;;;-0.41;86.14
57885;BME280;43703;51.060;-0.086;2023-01-16T02:57:54;96751.94;;;-1.13;88.45
57885;BME280;43703;51.060;-0.086;2023-01-16T03:00:17;96745.75;;;-0.68;88.64
57885;BME280;43703;51.060;-0.086;2023-01-16T03:02:40;96739.75;;;-1.19;88.90
57885;BME280;43703;51.060;-0.086;2023-01-16T03:05:06;96720.22;;;-0.36;85.79
57885;BME280;43703;51.060;-0.086;2023-01-16T03:07:47;96715.96;;;-0.88;89.66
57885;BME280;43703;51.060;-0.086;2023-01-16T03:10:06;96707.48;;;-0.32;85.94
57885;BME280;43703;51.060;-0.086;2023-01-16T03:12:28;96696.49;;;-0.04;84.69
57885;BME280;43703;51.060;-0.086;2023-01-16T03:14:51;96691.05;;;-0.19;85.62
57885;BME280;43703;51.060;-0.086;2023-01-16T03:17:21;96681.26;;;-0.15;83.28
57885;BME280;43703;51.060;-0.086;2023-01-16T03:19:52;96672.13;;;-0.99;86.14
57885;BME280;43703;51.060;-0.086;2023-01-16T03:22:09;96662.74;;;-0.31;83.61
57885;BME280;43703;51.060;-0.086;2023-01-16T03:24:33;96652.45;;;-1.29;89.64
57885;BME280;43703;51.060;-0.086;2023-01-16T03:26:56;96648.91;;;-1.31;90.24
57885;BME280;43703;51.060;-0.086;2023-01-16T03:29:21;96640.42;;;-1.21;88.99
57885;BME280;43703;51.060;-0.086;2023-01-16T03:31:47;96632.23;;;-0.98;88.35
57885;BME280;43703;51.060;-0.086;2023-01-16T03:34:16;96624.43;;;-1.74;90.48
57885;BME280;43703;51.060;-0.086;2023-01-16T03:36:35;96615.30;;;-1.64;92.14
57885;BME280;43703;51.060;-0.086;2023-01-16T03:38:57;96606.08;;;-1.66;91.24
57885;BME280;43703;51.060;-0.086;2023-01-16T03:41:24;96597.36;;;-0.96;88.64
57885;BME280;43703;51.060;-0.086;2023-01-16T03:43:50;96590.27;;;-0.94;86.98
57885;BME280;43703;51.060;-0.086;2023-01-16T03:46:15;96582.33;;;-0.75;87.02
57885;BME280;43703;51.060;-0.086;2023-01-16T03:48:41;96574.40;;;-0.86;86.86
57885;BME280;43703;51.060;-0.086;2023-01-16T03:51:05;96565.11;;;-0.57;86.59
57885;BME280;43703;51.060;-0.086;2023-01-16T03:53:31;96553.12;;;-1.60;90.14
57885;BME280;43703;51.060;-0.086;2023-01-16T03:55:58;96545.09;;;-1.14;87.69
57885;BME280;43703;51.060;-0.086;2023-01-16T03:58:21;96529.65;;;-1.39;88.05
57885;BME280;43703;51.060;-0.086;2023-01-16T04:00:48;96530.13;;;-1.36;90.99
57885;BME280;43703;51.060;-0.086;2023-01-16T04:03:10;96524.65;;;-0.90;88.90
57885;BME280;43703;51.060;-0.086;2023-01-16T04:05:38;96533.18;;;-0.98;88.02
57885;BME280;43703;51.060;-0.086;2023-01-16T04:08:01;96518.96;;;-1.23;87.75
57885;BME280;43703;51.060;-0.086;2023-01-16T04:10:25;96519.28;;;-1.29;88.76
57885;BME280;43703;51.060;-0.086;2023-01-16T04:12:50;96511.54;;;-0.74;86.90
57885;BME280;43703;51.060;-0.086;2023-01-16T04:15:13;96502.01;;;-1.12;88.31
57885;BME280;43703;51.060;-0.086;2023-01-16T04:17:39;96500.18;;;-0.49;85.85
57885;BME280;43703;51.060;-0.086;2023-01-16T04:20:05;96503.09;;;-0.87;85.15
57885;BME280;43703;51.060;-0.086;2023-01-16T04:22:29;96498.17;;;-1.06;86.48
57885;BME280;43703;51.060;-0.086;2023-01-16T04:24:56;96492.65;;;-0.23;83.98
57885;BME280;43703;51.060;-0.086;2023-01-16T04:27:18;96487.70;;;-0.08;82.66
57885;BME280;43703;51.060;-0.086;2023-01-16T04:29:43;96491.68;;;-0.51;82.90
57885;BME280;43703;51.060;-0.086;2023-01-16T04:32:08;96483.85;;;-0.10;82.22
57885;BME280;43703;51.060;-0.086;2023-01-16T04:34:33;96481.84;;;-0.43;81.95
57885;BME280;43703;51.060;-0.086;2023-01-16T04:36:58;96478.35;;;0.35;80.98
57885;BME280;43703;51.060;-0.086;2023-01-16T04:39:24;96478.95;;;0.54;80.07
57885;BME280;43703;51.060;-0.086;2023-01-16T04:41:49;96472.44;;;-0.66;83.01
57885;BME280;43703;51.060;-0.086;2023-01-16T04:44:14;96469.32;;;0.35;80.84
57885;BME280;43703;51.060;-0.086;2023-01-16T04:46:39;96472.24;;;0.13;80.67
57885;BME280;43703;51.060;-0.086;2023-01-16T04:49:04;96469.82;;;0.45;80.41
57885;BME280;43703;51.060;-0.086;2023-01-16T04:51:29;96472.64;;;0.47;80.48
57885;BME280;43703;51.060;-0.086;2023-01-16T04:53:54;96473.57;;;0.73;79.46
57885;BME280;43703;51.060;-0.086;2023-01-16T04:56:19;96471.42;;;0.96;77.88
57885;BME280;43703;51.060;-0.086;2023-01-16T04:58:44;96474.11;;;1.01;77.08
57885;BME280;43703;51.060;-0.086;2023-01-16T05:01:09;96470.37;;;0.77;77.52
57885;BME280;43703;51.060;-0.086;2023-01-16T05:03:34;96476.03;;;0.44;78.45
57885;BME280;43703;51.060;-0.086;2023-01-16T05:05:59;96479.22;;;0.49;77.03
57885;BME280;43703;51.060;-0.086;2023-01-16T05:08:25;96488.49;;;1.09;75.09
57885;BME280;43703;51.060;-0.086;2023-01-16T05:10:50;96480.61;;;0.97;76.06
57885;BME280;43703;51.060;-0.086;2023-01-16T05:13:15;96489.48;;;1.02;75.52
57885;BME280;43703;51.060;-0.086;2023-01-16T05:15:42;96489.56;;;0.85;76.37
57885;BME280;43703;51.060;-0.086;2023-01-16T05:18:05;96494.97;;;1.26;74.22
57885;BME280;43703;51.060;-0.086;2023-01-16T05:20:30;96493.69;;;1.05;75.63
57885;BME280;43703;51.060;-0.086;2023-01-16T05:22:55;96495.77;;;1.47;74.08
57885;BME280;43703;51.060;-0.086;2023-01-16T05:25:20;96491.76;;;0.94;75.57
57885;BME280;43703;51.060;-0.086;2023-01-16T05:27:49;96500.19;;;1.51;74.81
57885;BME280;43703;51.060;-0.086;2023-01-16T05:30:12;96497.62;;;1.10;74.69
57885;BME280;43703;51.060;-0.086;2023-01-16T05:32:35;96500.43;;;1.19;75.06
57885;BME280;43703;51.060;-0.086;2023-01-16T05:35:01;96502.80;;;0.88;74.27
57885;BME280;43703;51.060;-0.086;2023-01-16T05:37:26;96500.69;;;1.55;74.02
57885;BME280;43703;51.060;-0.086;2023-01-16T05:39:51;96513.26;;;1.19;74.76
57885;BME280;43703;51.060;-0.086;2023-01-16T05:42:16;96513.21;;;1.27;74.63
57885;BME280;43703;51.060;-0.086;2023-01-16T05:44:41;96510.79;;;1.09;74.68
57885;BME280;43703;51.060;-0.086;2023-01-16T05:47:06;96518.57;;;1.24;74.68
57885;BME280;43703;51.060;-0.086;2023-01-16T05:49:31;96521.41;;;1.25;73.62
57885;BME280;43703;51.060;-0.086;2023-01-16T05:51:56;96529.33;;;1.23;73.20
57885;BME280;43703;51.060;-0.086;2023-01-16T05:54:21;96530.32;;;1.84;73.15
57885;BME280;43703;51.060;-0.086;2023-01-16T05:56:47;96538.67;;;0.97;74.21
57885;BME280;43703;51.060;-0.086;2023-01-16T05:59:11;96537.22;;;1.06;74.27
57885;BME280;43703;51.060;-0.086;2023-01-16T06:01:36;96546.01;;;0.53;74.76
57885;BME280;43703;51.060;-0.086;2023-01-16T06:04:01;96546.46;;;1.06;74.15
57885;BME280;43703;51.060;-0.086;2023-01-16T06:06:27;96556.00;;;0.63;74.35
57885;BME280;43703;51.060;-0.086;2023-01-16T06:08:52;96554.10;;;1.17;74.78
57885;BME280;43703;51.060;-0.086;2023-01-16T06:11:22;96555.67;;;0.85;74.78
57885;BME280;43703;51.060;-0.086;2023-01-16T06:13:42;96556.08;;;1.55;74.03
57885;BME280;43703;51.060;-0.086;2023-01-16T06:16:07;96565.44;;;0.85;74.56
57885;BME280;43703;51.060;-0.086;2023-01-16T06:18:32;96570.81;;;1.18;73.47
57885;BME280;43703;51.060;-0.086;2023-01-16T06:20:57;96572.16;;;1.21;72.67
57885;BME280;43703;51.060;-0.086;2023-01-16T06:23:22;96572.57;;;1.67;72.93
57885;BME280;43703;51.060;-0.086;2023-01-16T06:25:48;96578.82;;;0.96;74.67
57885;BME280;43703;51.060;-0.086;2023-01-16T06:28:12;96583.39;;;1.44;73.92
57885;BME280;43703;51.060;-0.086;2023-01-16T06:30:37;96586.62;;;1.91;72.33
57885;BME280;43703;51.060;-0.086;2023-01-16T06:33:03;96590.07;;;0.92;73.49
57885;BME280;43703;51.060;-0.086;2023-01-16T06:35:28;96590.89;;;0.71;73.89
57885;BME280;43703;51.060;-0.086;2023-01-16T06:37:53;96600.32;;;0.92;74.60
57885;BME280;43703;51.060;-0.086;2023-01-16T06:40:18;96596.87;;;0.81;74.05
57885;BME280;43703;51.060;-0.086;2023-01-16T06:42:48;96598.45;;;1.87;72.82
57885;BME280;43703;51.060;-0.086;2023-01-16T06:45:09;96601.54;;;2.01;72.46
57885;BME280;43703;51.060;-0.086;2023-01-16T06:47:33;96604.08;;;0.98;73.81
57885;BME280;43703;51.060;-0.086;2023-01-16T06:49:58;96605.88;;;1.20;75.20
57885;BME280;43703;51.060;-0.086;2023-01-16T06:52:23;96611.55;;;1.21;73.54
57885;BME280;43703;51.060;-0.086;2023-01-16T06:54:48;96618.19;;;1.43;73.32
57885;BME280;43703;51.060;-0.086;2023-01-16T06:57:13;96627.97;;;0.85;74.10
57885;BME280;43703;51.060;-0.086;2023-01-16T06:59:38;96630.62;;;1.12;75.05
57885;BME280;43703;51.060;-0.086;2023-01-16T07:02:04;96637.41;;;1.55;73.22
57885;BME280;43703;51.060;-0.086;2023-01-16T07:04:28;96642.23;;;1.15;74.08
57885;BME280;43703;51.060;-0.086;2023-01-16T07:06:54;96641.25;;;1.70;72.47
57885;BME280;43703;51.060;-0.086;2023-01-16T07:09:19;96647.68;;;1.87;71.83
57885;BME280;43703;51.060;-0.086;2023-01-16T07:11:44;96652.74;;;1.85;72.94
57885;BME280;43703;51.060;-0.086;2023-01-16T07:14:09;96651.14;;;1.45;73.22
57885;BME280;43703;51.060;-0.086;2023-01-16T07:16:34;96658.82;;;1.31;73.83
57885;BME280;43703;51.060;-0.086;2023-01-16T07:18:59;96662.65;;;1.54;73.72
57885;BME280;43703;51.060;-0.086;2023-01-16T07:21:26;96664.22;;;1.54;73.37
57885;BME280;43703;51.060;-0.086;2023-01-16T07:23:52;96670.21;;;1.65;73.24
57885;BME280;43703;51.060;-0.086;2023-01-16T07:26:15;96677.57;;;1.59;72.22
57885;BME280;43703;51.060;-0.086;2023-01-16T07:28:39;96682.52;;;2.66;70.21
57885;BME280;43703;51.060;-0.086;2023-01-16T07:31:05;96685.23;;;2.30;71.23
57885;BME280;43703;51.060;-0.086;2023-01-16T07:33:29;96692.39;;;2.70;70.26
57885;BME280;43703;51.060;-0.086;2023-01-16T07:35:55;96695.06;;;2.32;71.27
57885;BME280;43703;51.060;-0.086;2023-01-16T07:38:20;96703.68;;;1.77;72.93
57885;BME280;43703;51.060;-0.086;2023-01-16T07:40:45;96708.64;;;1.64;73.43
57885;BME280;43703;51.060;-0.086;2023-01-16T07:43:10;96706.64;;;2.74;71.13
57885;BME280;43703;51.060;-0.086;2023-01-16T07:45:35;96706.92;;;1.12;75.76
57885;BME280;43703;51.060;-0.086;2023-01-16T07:48:00;96711.00;;;1.32;75.63
57885;BME280;43703;51.060;-0.086;2023-01-16T07:50:25;96708.52;;;2.23;72.23
57885;BME280;43703;51.060;-0.086;2023-01-16T07:52:50;96714.54;;;2.55;71.19
57885;BME280;43703;51.060;-0.086;2023-01-16T07:55:15;96717.54;;;3.04;70.51
57885;BME280;43703;51.060;-0.086;2023-01-16T07:57:40;96719.93;;;2.89;71.15
57885;BME280;43703;51.060;-0.086;2023-01-16T08:00:12;96725.64;;;2.81;72.02
57885;BME280;43703;51.060;-0.086;2023-01-16T08:02:31;96729.04;;;2.66;72.64
57885;BME280;43703;51.060;-0.086;2023-01-16T08:05:01;96734.28;;;2.80;72.09
57885;BME280;43703;51.060;-0.086;2023-01-16T08:07:21;96732.29;;;2.99;71.69
57885;BME280;43703;51.060;-0.086;2023-01-16T08:09:48;96739.97;;;2.98;71.73
57885;BME280;43703;51.060;-0.086;2023-01-16T08:12:11;96746.08;;;2.96;71.84
57885;BME280;43703;51.060;-0.086;2023-01-16T08:14:37;96747.83;;;2.63;73.93
57885;BME280;43703;51.060;-0.086;2023-01-16T08:17:02;96759.89;;;2.79;73.02
57885;BME280;43703;51.060;-0.086;2023-01-16T08:19:27;96765.19;;;2.53;72.81
57885;BME280;43703;51.060;-0.086;2023-01-16T08:21:52;96769.10;;;2.48;73.06
57885;BME280;43703;51.060;-0.086;2023-01-16T08:24:17;96773.40;;;2.39;74.29
57885;BME280;43703;51.060;-0.086;2023-01-16T08:26:42;96782.05;;;2.37;75.11
57885;BME280;43703;51.060;-0.086;2023-01-16T08:29:08;96781.62;;;1.53;76.82
57885;BME280;43703;51.060;-0.086;2023-01-16T08:31:32;96784.36;;;2.31;74.99
57885;BME280;43703;51.060;-0.086;2023-01-16T08:33:57;96792.02;;;2.22;75.71
57885;BME280;43703;51.060;-0.086;2023-01-16T08:36:22;96797.35;;;1.89;75.61
57885;BME280;43703;51.060;-0.086;2023-01-16T08:38:48;96804.93;;;2.49;74.16
57885;BME280;43703;51.060;-0.086;2023-01-16T08:41:14;96811.88;;;1.91;74.73
57885;BME280;43703;51.060;-0.086;2023-01-16T08:43:39;96813.68;;;1.90;75.58
57885;BME280;43703;51.060;-0.086;2023-01-16T08:46:04;96820.44;;;1.12;76.05
57885;BME280;43703;51.060;-0.086;2023-01-16T08:48:29;96829.18;;;2.40;74.69
57885;BME280;43703;51.060;-0.086;2023-01-16T08:50:56;96832.52;;;2.23;74.76
57885;BME280;43703;51.060;-0.086;2023-01-16T08:53:20;96834.85;;;2.58;74.09
57885;BME280;43703;51.060;-0.086;2023-01-16T08:55:46;96840.37;;;2.25;74.73
57885;BME280;43703;51.060;-0.086;2023-01-16T08:58:11;96839.70;;;1.66;76.27
57885;BME280;43703;51.060;-0.086;2023-01-16T09:00:37;96843.58;;;2.33;74.80
57885;BME280;43703;51.060;-0.086;2023-01-16T09:03:02;96847.87;;;1.91;76.16
57885;BME280;43703;51.060;-0.086;2023-01-16T09:05:28;96853.43;;;1.56;76.35
57885;BME280;43703;51.060;-0.086;2023-01-16T09:07:53;96859.08;;;1.91;76.27
57885;BME280;43703;51.060;-0.086;2023-01-16T09:10:19;96863.05;;;1.98;75.09
57885;BME280;43703;51.060;-0.086;2023-01-16T09:12:44;96872.02;;;2.31;75.28
57885;BME280;43703;51.060;-0.086;2023-01-16T09:15:09;96874.12;;;2.11;75.47
57885;BME280;43703;51.060;-0.086;2023-01-16T09:17:35;96876.59;;;1.69;75.28
57885;BME280;43703;51.060;-0.086;2023-01-16T09:20:01;96882.62;;;2.03;75.33
57885;BME280;43703;51.060;-0.086;2023-01-16T09:22:26;96892.32;;;1.36;76.65
57885;BME280;43703;51.060;-0.086;2023-01-16T09:24:51;96897.26;;;2.09;75.70
57885;BME280;43703;51.060;-0.086;2023-01-16T09:27:17;96901.06;;;2.16;75.02
57885;BME280;43703;51.060;-0.086;2023-01-16T09:29:42;96905.73;;;1.56;76.14
57885;BME280;43703;51.060;-0.086;2023-01-16T09:32:08;96916.57;;;2.44;75.39
57885;BME280;43703;51.060;-0.086;2023-01-16T09:34:33;96914.87;;;2.41;75.35
57885;BME280;43703;51.060;-0.086;2023-01-16T09:36:58;96925.74;;;1.09;76.47
57885;BME280;43703;51.060;-0.086;2023-01-16T09:39:23;96934.55;;;0.60;77.89
57885;BME280;43703;51.060;-0.086;2023-01-16T09:41:57;96935.03;;;1.64;78.01
57885;BME280;43703;51.060;-0.086;2023-01-16T09:44:16;96950.15;;;2.28;76.54
57885;BME280;43703;51.060;-0.086;2023-01-16T09:46:43;96951.56;;;1.92;77.73
57885;BME280;43703;51.060;-0.086;2023-01-16T09:49:13;96959.33;;;1.18;77.71
57885;BME280;43703;51.060;-0.086;2023-01-16T09:51:34;96962.02;;;0.86;80.05
57885;BME280;43703;51.060;-0.086;2023-01-16T09:53:58;96975.12;;;1.17;78.82
57885;BME280;43703;51.060;-0.086;2023-01-16T09:56:22;96978.54;;;0.43;79.31
57885;BME280;43703;51.060;-0.086;2023-01-16T09:58:50;96984.76;;;2.32;76.74
57885;BME280;43703;51.060;-0.086;2023-01-16T10:01:15;96994.53;;;1.28;77.83
57885;BME280;43703;51.060;-0.086;2023-01-16T10:03:37;96990.29;;;1.01;79.22
57885;BME280;43703;51.060;-0.086;2023-01-16T10:06:10;96999.13;;;1.52;78.39
57885;BME280;43703;51.060;-0.086;2023-01-16T10:08:34;97004.56;;;1.50;78.54
57885;BME280;43703;51.060;-0.086;2023-01-16T10:10:58;97013.53;;;0.06;81.94
57885;BME280;43703;51.060;-0.086;2023-01-16T10:13:31;97016.72;;;1.38;79.09
57885;BME280;43703;51.060;-0.086;2023-01-16T10:15:50;97019.32;;;1.49;78.41
57885;BME280;43703;51.060;-0.086;2023-01-16T10:18:21;97019.62;;;1.07;79.48
57885;BME280;43703;51.060;-0.086;2023-01-16T10:20:47;97012.97;;;1.44;79.75
57885;BME280;43703;51.060;-0.086;2023-01-16T10:23:11;97024.12;;;1.89;78.42
57885;BME280;43703;51.060;-0.086;2023-01-16T10:25:30;97031.75;;;1.19;79.02
57885;BME280;43703;51.060;-0.086;2023-01-16T10:28:03;97034.90;;;0.90;81.78
57885;BME280;43703;51.060;-0.086;2023-01-16T10:30:20;97040.37;;;1.81;78.16
57885;BME280;43703;51.060;-0.086;2023-01-16T10:32:45;97043.27;;;1.83;77.93
57885;BME280;43703;51.060;-0.086;2023-01-16T10:35:13;97044.81;;;2.05;77.79
57885;BME280;43703;51.060;-0.086;2023-01-16T10:37:33;97045.38;;;2.42;76.30
57885;BME280;43703;51.060;-0.086;2023-01-16T10:39:58;97052.41;;;1.35;78.41
57885;BME280;43703;51.060;-0.086;2023-01-16T10:42:26;97055.20;;;2.14;77.16
57885;BME280;43703;51.060;-0.086;2023-01-16T10:44:55;97060.70;;;1.39;77.08
57885;BME280;43703;51.060;-0.086;2023-01-16T10:47:15;97063.58;;;2.28;75.46
57885;BME280;43703;51.060;-0.086;2023-01-16T10:49:38;97070.04;;;1.80;75.02
57885;BME280;43703;51.060;-0.086;2023-01-16T10:52:04;97063.47;;;2.36;74.75
57885;BME280;43703;51.060;-0.086;2023-01-16T10:54:29;97078.38;;;2.91;73.87
57885;BME280;43703;51.060;-0.086;2023-01-16T10:56:54;97073.71;;;1.71;76.93
57885;BME280;43703;51.060;-0.086;2023-01-16T10:59:21;97077.05;;;1.92;75.40
57885;BME280;43703;51.060;-0.086;2023-01-16T11:01:47;97077.99;;;1.94;74.23
57885;BME280;43703;51.060;-0.086;2023-01-16T11:04:11;97080.82;;;1.35;76.04
57885;BME280;43703;51.060;-0.086;2023-01-16T11:06:37;97088.54;;;1.92;76.01
57885;BME280;43703;51.060;-0.086;2023-01-16T11:09:04;97085.38;;;2.30;74.74
57885;BME280;43703;51.060;-0.086;2023-01-16T11:11:28;97092.34;;;2.61;73.59
57885;BME280;43703;51.060;-0.086;2023-01-16T11:13:52;97094.59;;;2.57;74.24
57885;BME280;43703;51.060;-0.086;2023-01-16T11:16:20;97093.37;;;1.79;74.68
57885;BME280;43703;51.060;-0.086;2023-01-16T11:18:43;97102.43;;;2.34;74.11
57885;BME280;43703;51.060;-0.086;2023-01-16T11:21:15;97106.46;;;1.19;75.05
57885;BME280;43703;51.060;-0.086;2023-01-16T11:23:42;97112.46;;;1.65;77.56
57885;BME280;43703;51.060;-0.086;2023-01-16T11:26:00;97112.81;;;1.93;75.83
57885;BME280;43703;51.060;-0.086;2023-01-16T11:28:27;97116.04;;;1.63;75.90
57885;BME280;43703;51.060;-0.086;2023-01-16T11:30:54;97117.97;;;1.85;74.32
57885;BME280;43703;51.060;-0.086;2023-01-16T11:33:18;97120.16;;;1.13;76.91
57885;BME280;43703;51.060;-0.086;2023-01-16T11:35:47;97124.10;;;1.21;77.36
57885;BME280;43703;51.060;-0.086;2023-01-16T11:38:07;97130.95;;;1.41;78.70
57885;BME280;43703;51.060;-0.086;2023-01-16T11:40:36;97134.16;;;0.59;80.00
57885;BME280;43703;51.060;-0.086;2023-01-16T11:42:58;97133.80;;;1.84;75.68
57885;BME280;43703;51.060;-0.086;2023-01-16T11:45:29;97131.64;;;1.81;76.61
57885;BME280;43703;51.060;-0.086;2023-01-16T11:47:52;97139.34;;;1.90;76.86
57885;BME280;43703;51.060;-0.086;2023-01-16T11:50:21;97143.81;;;1.02;76.82
57885;BME280;43703;51.060;-0.086;2023-01-16T11:52:42;97144.86;;;1.41;77.61
57885;BME280;43703;51.060;-0.086;2023-01-16T11:55:12;97140.59;;;1.71;76.74
57885;BME280;43703;51.060;-0.086;2023-01-16T11:57:41;97143.94;;;1.33;76.31
57885;BME280;43703;51.060;-0.086;2023-01-16T12:00:11;97149.59;;;2.00;75.72
57885;BME280;43703;51.060;-0.086;2023-01-16T12:04:53;97154.82;;;1.43;76.46
57885;BME280;43703;51.060;-0.086;2023-01-16T12:07:19;97158.06;;;1.01;76.22
57885;BME280;43703;51.060;-0.086;2023-01-16T12:09:50;97159.59;;;1.67;75.57
57885;BME280;43703;51.060;-0.086;2023-01-16T12:12:16;97164.82;;;1.96;75.01
57885;BME280;43703;51.060;-0.086;2023-01-16T12:14:35;97172.76;;;2.14;73.39
57885;BME280;43703;51.060;-0.086;2023-01-16T12:17:02;97165.54;;;1.93;74.87
57885;BME280;43703;51.060;-0.086;2023-01-16T12:19:31;97169.24;;;2.00;74.23
57885;BME280;43703;51.060;-0.086;2023-01-16T12:21:48;97173.94;;;2.32;74.23
57885;BME280;43703;51.060;-0.086;2023-01-16T12:24:20;97174.50;;;2.56;73.42
57885;BME280;43703;51.060;-0.086;2023-01-16T12:26:42;97172.23;;;2.36;73.75
57885;BME280;43703;51.060;-0.086;2023-01-16T12:29:12;97167.05;;;2.22;74.90
57885;BME280;43703;51.060;-0.086;2023-01-16T12:31:37;97165.36;;;3.19;74.75
57885;BME280;43703;51.060;-0.086;2023-01-16T12:33:58;97164.86;;;3.63;72.81
57885;BME280;43703;51.060;-0.086;2023-01-16T12:36:26;97162.56;;;4.34;71.20
57885;BME280;43703;51.060;-0.086;2023-01-16T12:38:48;97165.30;;;2.58;70.66
57885;BME280;43703;51.060;-0.086;2023-01-16T12:41:15;97168.61;;;4.36;68.02
57885;BME280;43703;51.060;-0.086;2023-01-16T12:43:38;97168.22;;;3.53;69.16
57885;BME280;43703;51.060;-0.086;2023-01-16T12:46:01;97176.43;;;4.79;70.81
57885;BME280;43703;51.060;-0.086;2023-01-16T12:48:36;97178.13;;;3.99;68.99
57885;BME280;43703;51.060;-0.086;2023-01-16T12:51:02;97179.02;;;5.57;68.82
57885;BME280;43703;51.060;-0.086;2023-01-16T12:53:27;97175.90;;;5.42;67.40
57885;BME280;43703;51.060;-0.086;2023-01-16T12:55:47;97179.64;;;4.93;64.13